Time;durP1;ratioP1;P1;durP2;ratioP2;P2;SDS_P1;SDS_P2;PMS_P1;PMS_P2;Temp;Humidity;BMP_temperature;BMP_pressure;BME280_temperature;BME280_humidity;BME280_pressure;Samples;Min_cycle;Max_cycle;Signal;HPM_P1;HPM_P2
2021/08/17 00:02:15;;;;;;;2.42;1.42;;;19.00;61.00;;;;;;5057456;28;20036;-79
2021/08/17 00:04:40;;;;;;;2.13;1.38;;;18.90;60.50;;;;;;5056827;28;20017;-79
2021/08/17 00:07:07;;;;;;;4.93;1.65;;;18.90;60.60;;;;;;5056958;28;20036;-79
2021/08/17 00:09:32;;;;;;;3.05;1.45;;;19.00;60.80;;;;;;5055494;28;20078;-79
2021/08/17 00:11:58;;;;;;;2.13;1.42;;;18.90;60.40;;;;;;5055392;28;20059;-79
2021/08/17 00:14:24;;;;;;;2.03;1.52;;;18.90;60.70;;;;;;5056710;28;20110;-79
2021/08/17 00:16:49;;;;;;;2.10;1.60;;;18.90;60.80;;;;;;5056536;28;20032;-79
2021/08/17 00:19:15;;;;;;;2.28;1.55;;;18.90;60.90;;;;;;5056549;28;20029;-79
2021/08/17 00:21:40;;;;;;;3.03;1.70;;;18.80;60.80;;;;;;5056063;28;20029;-78
2021/08/17 00:24:06;;;;;;;2.05;1.48;;;18.80;61.00;;;;;;5056460;28;20396;-79
2021/08/17 00:26:32;;;;;;;3.25;1.80;;;18.80;61.00;;;;;;5056363;28;20035;-79
2021/08/17 00:28:58;;;;;;;2.03;1.33;;;18.80;61.40;;;;;;5056838;28;20160;-79
2021/08/17 00:31:33;;;;;;;1.77;1.45;;;18.80;61.40;;;;;;5056459;28;20039;-79
2021/08/17 00:34:04;;;;;;;2.72;1.58;;;18.80;61.70;;;;;;5056088;28;20067;-79
2021/08/17 00:36:30;;;;;;;2.05;1.40;;;18.80;61.90;;;;;;5055171;28;20040;-79
2021/08/17 00:38:56;;;;;;;2.17;1.50;;;18.80;61.80;;;;;;5055039;28;20021;-79
2021/08/17 00:41:22;;;;;;;2.20;1.55;;;18.80;61.60;;;;;;5064455;28;20059;-79
2021/08/17 00:43:48;;;;;;;3.17;1.70;;;18.80;61.60;;;;;;5056003;28;20064;-79
2021/08/17 00:46:14;;;;;;;2.58;1.50;;;18.80;61.60;;;;;;5056265;28;20569;-79
2021/08/17 00:48:43;;;;;;;2.22;1.52;;;18.80;61.80;;;;;;5055939;28;20044;-79
2021/08/17 00:51:09;;;;;;;1.88;1.42;;;18.80;62.20;;;;;;5054636;28;20109;-79
2021/08/17 00:53:36;;;;;;;4.32;1.75;;;18.80;61.70;;;;;;5056068;28;20057;-79
2021/08/17 00:56:04;;;;;;;1.98;1.40;;;18.80;61.90;;;;;;5054712;28;20053;-79
2021/08/17 00:58:30;;;;;;;2.38;1.60;;;18.80;62.00;;;;;;5071284;28;20422;-79
2021/08/17 01:00:59;;;;;;;2.72;1.50;;;18.70;62.20;;;;;;5055745;28;20025;-79
2021/08/17 01:03:26;;;;;;;3.10;1.77;;;18.70;62.30;;;;;;5055819;28;20025;-79
2021/08/17 01:05:52;;;;;;;2.33;1.60;;;18.60;62.40;;;;;;5055608;28;20021;-79
2021/08/17 01:08:18;;;;;;;2.30;1.67;;;18.60;62.40;;;;;;5055286;28;20092;-79
2021/08/17 01:10:44;;;;;;;3.03;1.80;;;18.60;63.00;;;;;;5056026;28;20037;-79
2021/08/17 01:13:10;;;;;;;3.97;2.20;;;18.60;63.30;;;;;;5055630;28;20028;-79
2021/08/17 01:15:35;;;;;;;2.13;1.58;;;18.60;62.90;;;;;;5054514;28;20032;-79
2021/08/17 01:18:06;;;;;;;1.65;1.40;;;18.60;63.00;;;;;;5055465;28;20111;-79
2021/08/17 01:20:33;;;;;;;3.42;1.50;;;18.60;63.00;;;;;;5055966;28;20100;-79
2021/08/17 01:23:02;;;;;;;2.85;1.77;;;18.60;63.30;;;;;;5055310;28;20514;-78
2021/08/17 01:25:27;;;;;;;2.65;1.77;;;18.60;63.30;;;;;;5070897;28;20032;-79
2021/08/17 01:27:53;;;;;;;2.65;1.60;;;18.60;63.30;;;;;;5055474;28;20080;-79
2021/08/17 01:30:19;;;;;;;2.45;1.67;;;18.60;63.30;;;;;;5055458;28;20021;-79
2021/08/17 01:32:46;;;;;;;1.70;1.38;;;18.60;63.40;;;;;;5055263;28;20029;-79
2021/08/17 01:35:13;;;;;;;2.13;1.80;;;18.50;63.90;;;;;;5055352;28;20083;-79
2021/08/17 01:37:38;;;;;;;3.20;2.03;;;18.50;63.40;;;;;;5055307;28;20032;-79
2021/08/17 01:40:12;;;;;;;3.00;1.67;;;18.50;63.50;;;;;;5056633;28;20502;-79
2021/08/17 01:42:45;;;;;;;2.47;1.73;;;18.50;63.90;;;;;;5074243;28;20024;-79
2021/08/17 01:45:25;;;;;;;;;;;;;;;;;;;;;
2021/08/17 01:47:55;;;;;;;2.08;1.60;;;18.50;63.80;;;;;;5071603;28;20037;-79
2021/08/17 01:50:21;;;;;;;2.43;2.13;;;18.50;63.70;;;;;;5055307;28;20029;-79
2021/08/17 01:52:47;;;;;;;3.33;1.88;;;18.40;63.90;;;;;;5059252;28;20324;-78
2021/08/17 01:55:13;;;;;;;2.22;1.58;;;18.40;64.30;;;;;;5073853;28;20025;-79
2021/08/17 01:57:39;;;;;;;3.50;1.80;;;18.40;64.60;;;;;;5075214;28;20067;-79
2021/08/17 02:00:06;;;;;;;4.40;1.77;;;18.40;64.20;;;;;;5074091;28;20546;-79
2021/08/17 02:02:56;;;;;;;2.67;1.80;;;18.30;64.40;;;;;;5067015;28;20047;-79
2021/08/17 02:05:23;;;;;;;2.75;1.75;;;18.30;64.50;;;;;;5057058;28;20025;-79
2021/08/17 02:07:51;;;;;;;1.92;1.50;;;18.30;64.60;;;;;;5075146;28;20092;-79
2021/08/17 02:10:17;;;;;;;4.13;1.88;;;18.30;64.90;;;;;;5071668;28;20016;-79
2021/08/17 02:12:43;;;;;;;2.53;1.92;;;18.30;64.90;;;;;;5055002;28;20436;-79
2021/08/17 02:15:09;;;;;;;3.60;1.73;;;18.30;64.90;;;;;;5066916;28;20032;-79
2021/08/17 02:17:35;;;;;;;3.17;2.10;;;18.30;64.90;;;;;;5075201;28;20033;-79
2021/08/17 02:20:01;;;;;;;2.40;1.58;;;18.30;65.30;;;;;;5079065;28;20024;-79
2021/08/17 02:22:27;;;;;;;2.08;1.50;;;18.30;64.90;;;;;;5077513;28;20033;-79
2021/08/17 02:24:52;;;;;;;2.80;1.90;;;18.30;65.20;;;;;;5073147;28;20029;-79
2021/08/17 02:27:18;;;;;;;2.83;1.58;;;18.30;65.20;;;;;;5057518;28;20029;-79
2021/08/17 02:29:44;;;;;;;2.85;1.75;;;18.30;64.90;;;;;;5058730;28;20032;-79
2021/08/17 02:32:10;;;;;;;2.17;1.55;;;18.30;65.20;;;;;;5058488;28;20108;-79
2021/08/17 02:34:35;;;;;;;2.70;1.90;;;18.30;65.40;;;;;;5056936;28;20052;-79
2021/08/17 02:37:01;;;;;;;2.75;1.90;;;18.20;65.80;;;;;;5058647;28;20082;-79
2021/08/17 02:39:27;;;;;;;3.90;2.10;;;18.20;66.00;;;;;;5058625;28;20099;-79
2021/08/17 02:41:52;;;;;;;3.40;1.67;;;18.20;65.80;;;;;;5074764;28;20029;-79
2021/08/17 02:44:18;;;;;;;3.13;1.80;;;18.30;65.60;;;;;;5078377;28;20041;-79
2021/08/17 02:46:44;;;;;;;4.35;2.15;;;18.20;65.60;;;;;;5069035;28;20103;-79
2021/08/17 02:49:10;;;;;;;2.58;1.67;;;18.20;65.60;;;;;;5058339;28;20107;-79
2021/08/17 02:51:36;;;;;;;2.00;1.75;;;18.30;65.60;;;;;;5058429;28;20068;-79
2021/08/17 02:54:01;;;;;;;2.42;1.70;;;18.30;65.70;;;;;;5058660;28;20033;-79
2021/08/17 02:56:27;;;;;;;2.65;1.67;;;18.20;66.00;;;;;;5073351;28;20044;-79
2021/08/17 02:58:54;;;;;;;2.55;1.80;;;18.20;66.60;;;;;;5058251;28;20013;-79
2021/08/17 03:01:19;;;;;;;3.25;1.85;;;18.10;66.70;;;;;;5058491;28;20021;-79
2021/08/17 03:03:45;;;;;;;2.40;1.75;;;18.20;66.20;;;;;;5057876;28;20495;-79
2021/08/17 03:06:11;;;;;;;2.72;1.70;;;18.10;65.80;;;;;;5058225;28;20025;-79
2021/08/17 03:08:36;;;;;;;3.03;1.67;;;18.30;66.10;;;;;;5058064;28;20025;-79
2021/08/17 03:11:05;;;;;;;2.75;1.73;;;18.20;66.50;;;;;;5076635;28;20765;-79
2021/08/17 03:13:32;;;;;;;2.35;1.73;;;18.20;66.20;;;;;;5077947;28;20017;-79
2021/08/17 03:15:57;;;;;;;3.20;1.58;;;18.20;66.00;;;;;;5069461;28;20032;-79
2021/08/17 03:18:23;;;;;;;3.35;1.80;;;18.20;66.40;;;;;;5058032;28;20089;-79
2021/08/17 03:20:49;;;;;;;2.40;1.85;;;18.20;66.40;;;;;;5057796;28;20480;-79
2021/08/17 03:23:16;;;;;;;3.15;1.75;;;18.20;66.60;;;;;;5057621;28;20108;-79
2021/08/17 03:25:42;;;;;;;4.65;2.00;;;18.20;66.50;;;;;;5057939;28;20032;-79
2021/08/17 03:28:08;;;;;;;2.28;1.90;;;18.20;66.50;;;;;;5057742;28;20029;-79
2021/08/17 03:30:35;;;;;;;2.70;1.80;;;18.20;66.40;;;;;;5056933;28;20021;-79
2021/08/17 03:33:00;;;;;;;1.98;1.58;;;18.10;67.20;;;;;;5057243;28;20036;-79
2021/08/17 03:35:26;;;;;;;2.55;1.80;;;18.10;66.80;;;;;;5057674;28;20029;-79
2021/08/17 03:37:52;;;;;;;3.90;1.95;;;18.00;67.40;;;;;;5057478;28;20077;-79
2021/08/17 03:40:20;;;;;;;2.83;1.92;;;18.00;67.30;;;;;;5060335;28;20029;-79
2021/08/17 03:42:46;;;;;;;2.67;1.80;;;18.00;67.20;;;;;;5077305;28;20428;-79
2021/08/17 03:45:21;;;;;;;2.00;1.60;;;18.00;66.70;;;;;;5077331;28;20055;-78
2021/08/17 03:47:48;;;;;;;3.60;1.73;;;18.10;66.60;;;;;;5077286;28;20024;-79
2021/08/17 03:50:14;;;;;;;2.10;1.73;;;18.00;67.10;;;;;;5063029;28;20120;-79
2021/08/17 03:52:41;;;;;;;2.47;1.55;;;18.10;67.00;;;;;;5057286;28;20052;-79
2021/08/17 03:55:07;;;;;;;3.15;1.90;;;18.00;66.80;;;;;;5057452;28;20518;-79
2021/08/17 03:57:33;;;;;;;2.40;1.70;;;18.00;67.20;;;;;;5062529;28;20055;-79
2021/08/17 03:59:59;;;;;;;2.05;1.60;;;18.00;67.00;;;;;;5077211;28;20021;-79
2021/08/17 04:02:30;;;;;;;2.85;1.67;;;18.00;67.00;;;;;;5075729;28;20016;-78
2021/08/17 04:04:55;;;;;;;3.25;1.45;;;18.00;67.30;;;;;;5074929;28;20410;-79
2021/08/17 04:07:21;;;;;;;1.98;1.60;;;18.00;67.10;;;;;;5075869;28;20032;-79
2021/08/17 04:09:46;;;;;;;2.05;1.58;;;18.00;66.80;;;;;;5072139;28;20659;-79
2021/08/17 04:12:12;;;;;;;2.92;1.55;;;18.00;66.80;;;;;;5056848;28;20387;-79
2021/08/17 04:14:38;;;;;;;2.67;1.50;;;18.00;66.80;;;;;;5056932;28;20036;-79
2021/08/17 04:17:03;;;;;;;2.58;1.95;;;17.90;67.90;;;;;;5056584;28;20025;-79
2021/08/17 04:19:38;;;;;;;2.13;1.65;;;18.00;67.30;;;;;;5057029;28;20132;-79
2021/08/17 04:22:05;;;;;;;3.50;1.38;;;17.90;67.60;;;;;;5056739;28;20100;-79
2021/08/17 04:24:31;;;;;;;2.95;1.80;;;17.90;67.50;;;;;;5070167;28;20024;-79
2021/08/17 04:26:56;;;;;;;2.47;1.83;;;18.00;67.30;;;;;;5076594;28;20054;-79
2021/08/17 04:29:22;;;;;;;3.25;1.70;;;18.00;66.90;;;;;;5076612;28;20048;-79
2021/08/17 04:31:48;;;;;;;3.80;1.80;;;18.00;66.90;;;;;;5057067;28;20029;-79
2021/08/17 04:34:13;;;;;;;3.00;1.33;;;18.00;66.90;;;;;;5056440;28;20029;-79
2021/08/17 04:36:44;;;;;;;1.50;1.20;;;17.90;67.50;;;;;;5060987;28;20035;-80
2021/08/17 04:39:10;;;;;;;2.05;1.52;;;17.90;67.20;;;;;;5076340;28;20021;-79
2021/08/17 04:41:36;;;;;;;2.15;1.33;;;17.90;67.60;;;;;;5074810;28;20120;-79
2021/08/17 04:44:01;;;;;;;2.33;1.50;;;17.90;67.30;;;;;;5056553;28;20045;-79
2021/08/17 04:46:27;;;;;;;2.35;1.23;;;17.90;67.50;;;;;;5056352;28;20074;-79
2021/08/17 04:48:53;;;;;;;2.40;1.60;;;18.00;67.30;;;;;;5064916;28;20040;-79
2021/08/17 04:51:19;;;;;;;2.22;1.55;;;17.90;67.70;;;;;;5067274;28;20095;-79
2021/08/17 04:53:44;;;;;;;3.35;1.48;;;17.80;67.60;;;;;;5060364;28;20041;-79
2021/08/17 04:56:10;;;;;;;3.00;1.70;;;17.90;67.50;;;;;;5054575;28;20025;-79
2021/08/17 04:58:36;;;;;;;1.80;1.30;;;17.90;67.90;;;;;;5054673;28;20476;-79
2021/08/17 05:01:02;;;;;;;3.05;1.50;;;17.90;67.80;;;;;;5064957;28;20933;-79
2021/08/17 05:03:28;;;;;;;2.28;1.65;;;17.90;67.70;;;;;;5075940;28;20103;-79
2021/08/17 05:05:53;;;;;;;2.47;1.70;;;17.90;67.80;;;;;;5076022;28;20056;-79
2021/08/17 05:08:19;;;;;;;2.10;1.50;;;17.80;68.10;;;;;;5072553;28;20033;-79
2021/08/17 05:10:45;;;;;;;2.58;1.60;;;17.80;67.60;;;;;;5055770;28;20036;-79
2021/08/17 05:13:11;;;;;;;2.65;1.50;;;17.80;67.60;;;;;;5055796;28;20543;-79
2021/08/17 05:15:37;;;;;;;1.98;1.35;;;17.90;67.50;;;;;;5068970;28;20028;-79
2021/08/17 05:18:03;;;;;;;2.10;1.50;;;17.90;67.50;;;;;;5075570;28;20021;-79
2021/08/17 05:20:29;;;;;;;2.00;1.50;;;17.80;67.60;;;;;;5075678;28;20032;-79
2021/08/17 05:22:55;;;;;;;2.72;1.50;;;17.80;67.70;;;;;;5058724;28;20091;-79
2021/08/17 05:25:21;;;;;;;1.52;1.30;;;17.80;67.30;;;;;;5055640;28;20036;-79
2021/08/17 05:27:50;;;;;;;1.60;1.25;;;17.80;67.40;;;;;;5055575;28;21232;-79
2021/08/17 05:30:16;;;;;;;2.22;1.30;;;17.80;67.20;;;;;;5062390;28;20028;-79
2021/08/17 05:32:43;;;;;;;2.38;1.40;;;17.80;67.10;;;;;;5055407;28;20043;-79
2021/08/17 05:35:09;;;;;;;3.08;1.27;;;17.80;67.00;;;;;;5055432;28;20025;-79
2021/08/17 05:37:35;;;;;;;2.03;1.38;;;17.90;66.80;;;;;;5055376;28;20028;-79
2021/08/17 05:40:03;;;;;;;3.95;1.40;;;17.80;67.00;;;;;;5056792;28;20395;-79
2021/08/17 05:42:28;;;;;;;1.60;1.10;;;17.80;66.70;;;;;;5075318;28;20024;-78
2021/08/17 05:44:54;;;;;;;1.63;1.08;;;17.80;66.80;;;;;;5063539;28;20053;-79
2021/08/17 05:47:20;;;;;;;2.58;1.50;;;17.80;66.60;;;;;;5055396;28;20029;-79
2021/08/17 05:49:46;;;;;;;1.98;1.15;;;17.80;66.60;;;;;;5054189;28;20029;-79
2021/08/17 05:52:14;;;;;;;2.28;1.35;;;17.80;66.50;;;;;;5055473;28;20036;-79
2021/08/17 05:54:40;;;;;;;1.58;1.10;;;17.80;66.80;;;;;;5060261;28;20031;-79
2021/08/17 05:57:06;;;;;;;2.10;1.38;;;17.80;67.50;;;;;;5061892;28;20039;-79
2021/08/17 05:59:32;;;;;;;1.80;1.20;;;17.80;67.00;;;;;;5061904;28;20543;-79
2021/08/17 06:02:00;;;;;;;1.65;1.30;;;17.70;67.60;;;;;;5061438;28;20025;-79
2021/08/17 06:04:26;;;;;;;1.83;1.20;;;17.50;67.80;;;;;;5061884;28;20100;-80
2021/08/17 06:06:52;;;;;;;1.98;1.20;;;17.60;67.90;;;;;;5062200;28;20029;-80
2021/08/17 06:09:21;;;;;;;2.25;1.17;;;17.60;68.10;;;;;;5061683;28;20033;-79
2021/08/17 06:11:48;;;;;;;1.83;1.63;;;17.70;67.50;;;;;;5061890;28;20037;-79
2021/08/17 06:14:15;;;;;;;1.58;1.02;;;17.80;67.10;;;;;;5061804;28;20032;-82
2021/08/17 06:16:41;;;;;;;1.88;1.00;;;17.80;66.80;;;;;;5061752;28;20057;-84
2021/08/17 06:19:07;;;;;;;1.67;1.00;;;17.80;66.60;;;;;;5079272;28;20044;-79
2021/08/17 06:21:34;;;;;;;2.70;1.00;;;17.90;66.50;;;;;;5081705;28;20384;-84
2021/08/17 06:24:01;;;;;;;2.08;1.13;;;17.90;66.80;;;;;;5066777;28;20025;-81
2021/08/17 06:26:27;;;;;;;1.63;1.20;;;17.90;67.20;;;;;;5061569;28;20445;-81
2021/08/17 06:28:53;;;;;;;2.60;1.17;;;17.90;67.10;;;;;;5061735;28;20124;-81
2021/08/17 06:31:23;;;;;;;2.25;1.23;;;18.00;67.20;;;;;;5059951;28;20029;-83
2021/08/17 06:33:54;;;;;;;1.70;1.10;;;18.00;66.90;;;;;;5061596;28;20017;-86
2021/08/17 06:36:20;;;;;;;1.88;1.27;;;18.00;67.00;;;;;;5061646;28;20059;-83
2021/08/17 06:38:46;;;;;;;1.40;0.95;;;18.00;66.90;;;;;;5061938;28;20027;-85
2021/08/17 06:41:12;;;;;;;1.67;1.20;;;18.00;67.10;;;;;;5068462;28;20463;-89
2021/08/17 06:43:38;;;;;;;2.85;1.40;;;18.10;66.70;;;;;;5063846;28;20902;-92
2021/08/17 06:46:04;;;;;;;2.05;1.20;;;18.10;66.90;;;;;;5061288;28;20135;-86
2021/08/17 06:48:30;;;;;;;2.85;1.60;;;18.10;66.80;;;;;;5062391;28;20029;-84
2021/08/17 06:50:56;;;;;;;2.13;1.05;;;18.20;66.50;;;;;;5061284;28;20036;-85
2021/08/17 06:53:23;;;;;;;2.40;1.20;;;18.20;66.80;;;;;;5067513;28;20431;-85
2021/08/17 06:55:49;;;;;;;1.70;1.20;;;18.30;66.20;;;;;;5082236;28;20029;-83
2021/08/17 06:58:15;;;;;;;1.92;1.00;;;18.30;66.10;;;;;;5064898;28;20037;-82
2021/08/17 07:00:42;;;;;;;1.77;1.13;;;18.30;66.00;;;;;;5064371;28;20527;-80
2021/08/17 07:03:08;;;;;;;2.42;1.27;;;18.30;66.00;;;;;;5075569;28;20043;-84
2021/08/17 07:05:35;;;;;;;1.40;1.10;;;18.30;66.30;;;;;;5076679;28;20051;-83
2021/08/17 07:08:01;;;;;;;1.80;1.08;;;18.30;66.60;;;;;;5072230;28;20036;-82
2021/08/17 07:10:27;;;;;;;1.95;1.02;;;18.20;66.90;;;;;;5057902;28;20039;-84
2021/08/17 07:12:52;;;;;;;1.50;0.95;;;18.30;66.20;;;;;;5065065;28;20025;-83
2021/08/17 07:15:18;;;;;;;2.00;0.90;;;18.20;66.10;;;;;;5067624;28;20414;-84
2021/08/17 07:17:43;;;;;;;1.60;1.05;;;18.30;65.70;;;;;;5066355;28;20539;-85
2021/08/17 07:20:10;;;;;;;2.35;0.93;;;18.30;65.80;;;;;;5066166;28;20024;-85
2021/08/17 07:22:35;;;;;;;3.22;1.40;;;18.30;65.80;;;;;;5067324;28;20078;-81
2021/08/17 07:25:01;;;;;;;1.30;1.00;;;18.30;65.70;;;;;;5068217;28;20021;-83
2021/08/17 07:27:27;;;;;;;1.42;1.08;;;18.40;65.70;;;;;;5066677;28;20033;-84
2021/08/17 07:29:52;;;;;;;2.10;1.20;;;18.40;65.30;;;;;;5071139;28;20100;-84
2021/08/17 07:32:18;;;;;;;2.28;1.20;;;18.50;65.40;;;;;;5072366;28;20033;-84
2021/08/17 07:34:44;;;;;;;1.55;0.85;;;18.50;65.30;;;;;;5071792;28;20017;-82
2021/08/17 07:37:09;;;;;;;2.00;1.30;;;18.50;65.80;;;;;;5077325;28;20036;-83
2021/08/17 07:39:35;;;;;;;1.80;0.82;;;18.50;65.50;;;;;;5077457;28;20016;-83
2021/08/17 07:42:00;;;;;;;1.58;0.90;;;18.40;65.40;;;;;;5065306;28;20021;-83
2021/08/17 07:44:27;;;;;;;1.95;1.00;;;18.40;65.60;;;;;;5057054;28;20053;-83
2021/08/17 07:46:53;;;;;;;1.52;1.00;;;18.50;65.00;;;;;;5072373;28;20121;-83
2021/08/17 07:49:19;;;;;;;1.45;0.80;;;18.50;65.90;;;;;;5071528;28;20112;-83
2021/08/17 07:51:44;;;;;;;2.00;1.00;;;18.50;65.20;;;;;;5057423;28;20482;-83
2021/08/17 07:54:10;;;;;;;1.45;1.00;;;18.60;65.50;;;;;;5057006;28;20037;-83
2021/08/17 07:56:36;;;;;;;1.42;1.20;;;18.60;65.50;;;;;;5059435;28;20032;-83
2021/08/17 07:59:01;;;;;;;1.55;1.00;;;18.80;65.10;;;;;;5077091;28;20033;-83
2021/08/17 08:01:27;;;;;;;1.70;1.10;;;18.90;65.10;;;;;;5068180;28;20079;-83
2021/08/17 08:03:53;;;;;;;4.20;1.10;;;19.00;64.30;;;;;;5056883;28;20503;-84
2021/08/17 08:06:18;;;;;;;2.03;1.10;;;19.00;64.20;;;;;;5056852;28;20170;-83
2021/08/17 08:08:44;;;;;;;2.55;1.10;;;19.10;64.00;;;;;;5056917;28;20029;-83
2021/08/17 08:11:10;;;;;;;1.70;1.10;;;19.20;63.90;;;;;;5064312;28;20024;-83
2021/08/17 08:13:35;;;;;;;1.75;1.25;;;19.30;64.00;;;;;;5076516;28;20029;-83
2021/08/17 08:16:01;;;;;;;1.35;0.82;;;19.20;63.50;;;;;;5056746;28;20029;-83
2021/08/17 08:18:27;;;;;;;2.15;1.08;;;19.20;63.90;;;;;;5056673;28;20063;-83
2021/08/17 08:20:52;;;;;;;1.67;1.20;;;19.20;64.00;;;;;;5061039;28;20027;-83
2021/08/17 08:23:18;;;;;;;2.13;1.02;;;19.00;64.20;;;;;;5073420;28;20040;-83
2021/08/17 08:25:44;;;;;;;1.58;1.00;;;19.00;64.40;;;;;;5064687;28;20033;-84
2021/08/17 08:28:11;;;;;;;1.77;1.02;;;19.10;64.10;;;;;;5061964;28;20021;-82
2021/08/17 08:30:38;;;;;;;2.80;0.77;;;19.20;64.00;;;;;;5057818;28;20108;-83
2021/08/17 08:33:03;;;;;;;1.80;1.20;;;19.30;63.80;;;;;;5055824;28;20029;-83
2021/08/17 08:35:30;;;;;;;1.60;0.82;;;19.30;63.50;;;;;;5055963;28;20036;-83
2021/08/17 08:37:56;;;;;;;1.88;1.00;;;19.30;63.30;;;;;;5055830;28;20037;-82
2021/08/17 08:40:25;;;;;;;2.80;1.15;;;19.30;63.10;;;;;;5056265;28;20051;-83
2021/08/17 08:42:52;;;;;;;3.47;1.38;;;19.30;63.40;;;;;;5072753;28;20131;-82
2021/08/17 08:45:17;;;;;;;2.38;1.30;;;19.30;63.50;;;;;;5076023;28;20518;-84
2021/08/17 08:47:44;;;;;;;2.10;1.40;;;19.50;63.50;;;;;;5045098;28;20059;-84
2021/08/17 08:50:10;;;;;;;1.80;1.00;;;19.50;62.90;;;;;;5072245;28;20052;-84
2021/08/17 08:52:36;;;;;;;1.60;1.00;;;19.50;63.70;;;;;;5070308;28;20028;-84
2021/08/17 08:55:04;;;;;;;2.22;1.20;;;19.50;63.80;;;;;;5076453;28;20036;-84
2021/08/17 08:57:30;;;;;;;2.20;1.30;;;19.50;63.70;;;;;;5074897;28;20415;-84
2021/08/17 08:59:56;;;;;;;2.03;1.05;;;19.50;64.00;;;;;;5075072;28;20013;-84
2021/08/17 09:02:30;;;;;;;2.60;1.35;;;19.40;64.20;;;;;;5070657;28;20438;-82
2021/08/17 09:04:58;;;;;;;3.05;1.10;;;19.40;65.30;;;;;;5068574;28;20032;-83
2021/08/17 09:07:38;;;;;;;2.08;1.05;;;19.30;65.80;;;;;;5059372;28;20032;-83
2021/08/17 09:10:25;;;;;;;1.60;1.10;;;19.30;66.40;;;;;;5061818;28;20498;-85
2021/08/17 09:12:57;;;;;;;1.70;1.08;;;19.30;66.60;;;;;;5074770;28;20093;-84
2021/08/17 09:15:29;;;;;;;1.85;1.00;;;19.40;66.00;;;;;;5073434;28;20390;-83
2021/08/17 09:18:01;;;;;;;1.13;0.90;;;19.30;66.60;;;;;;5074808;28;20394;-82
2021/08/17 09:20:30;;;;;;;2.22;1.10;;;19.30;66.80;;;;;;5075375;28;20020;-84
2021/08/17 09:22:55;;;;;;;1.88;1.00;;;19.30;67.30;;;;;;5072827;28;20025;-85
2021/08/17 09:25:33;;;;;;;1.60;1.02;;;19.40;66.20;;;;;;5075280;28;20557;-82
2021/08/17 09:28:24;;;;;;;1.80;1.15;;;19.50;66.30;;;;;;5074354;28;20033;-83
2021/08/17 09:30:50;;;;;;;1.85;0.98;;;19.50;66.60;;;;;;5069374;28;20029;-82
2021/08/17 09:33:16;;;;;;;1.45;1.00;;;19.60;66.40;;;;;;5058211;28;20066;-81
2021/08/17 09:35:41;;;;;;;2.08;1.08;;;19.70;66.50;;;;;;5056435;28;20472;-85
2021/08/17 09:38:13;;;;;;;2.13;0.90;;;19.90;66.60;;;;;;5055000;28;20376;-84
2021/08/17 09:40:40;;;;;;;1.20;0.82;;;20.20;65.20;;;;;;5060492;28;20024;-89
2021/08/17 09:43:26;;;;;;;1.02;0.70;;;20.30;64.70;;;;;;5072776;28;20084;-87
2021/08/17 09:45:52;;;;;;;1.00;0.60;;;20.50;63.60;;;;;;5070318;28;20038;-81
2021/08/17 09:48:28;;;;;;;1.00;0.50;;;20.50;62.90;;;;;;5054852;28;20124;-82
2021/08/17 09:50:54;;;;;;;1.27;0.60;;;20.70;62.50;;;;;;5060436;28;20038;-84
2021/08/17 09:53:21;;;;;;;0.93;0.55;;;20.80;62.30;;;;;;5061676;28;20901;-85
2021/08/17 09:55:56;;;;;;;1.85;0.70;;;20.80;62.00;;;;;;5063693;28;20021;-84
2021/08/17 09:58:40;;;;;;;1.23;0.60;;;20.80;61.80;;;;;;5069208;28;20456;-85
2021/08/17 10:01:10;;;;;;;1.00;0.57;;;20.80;61.60;;;;;;5054991;28;20025;-81
2021/08/17 10:03:36;;;;;;;1.40;0.60;;;20.80;62.10;;;;;;5074619;28;20025;-81
2021/08/17 10:06:02;;;;;;;1.08;0.70;;;20.80;61.70;;;;;;5072557;28;20119;-81
2021/08/17 10:08:30;;;;;;;1.52;0.60;;;21.00;62.10;;;;;;5073480;28;20029;-81
2021/08/17 10:10:59;;;;;;;2.25;0.40;;;21.30;61.10;;;;;;5066552;28;20023;-81
2021/08/17 10:13:27;;;;;;;0.90;0.40;;;21.50;60.90;;;;;;5055992;28;20029;-85
2021/08/17 10:15:53;;;;;;;1.58;1.00;;;21.40;59.80;;;;;;5079223;28;20021;-79
2021/08/17 10:18:22;;;;;;;1.52;0.60;;;21.50;60.40;;;;;;5072566;28;20020;-85
2021/08/17 10:20:52;;;;;;;1.42;0.77;;;21.50;60.40;;;;;;5074676;28;20056;-83
2021/08/17 10:23:20;;;;;;;2.00;0.60;;;21.40;60.40;;;;;;5072981;28;20094;-84
2021/08/17 10:25:49;;;;;;;0.90;0.50;;;21.30;59.40;;;;;;5055405;28;20021;-81
2021/08/17 10:28:26;;;;;;;1.27;0.55;;;21.40;58.90;;;;;;5056064;28;20029;-84
2021/08/17 10:30:53;;;;;;;1.38;0.70;;;21.40;59.60;;;;;;5053950;28;20025;-85
2021/08/17 10:33:39;;;;;;;1.40;0.70;;;21.50;58.60;;;;;;5054608;28;20074;-86
2021/08/17 10:36:06;;;;;;;1.30;0.65;;;21.60;59.10;;;;;;5065659;28;20040;-81
2021/08/17 10:38:31;;;;;;;1.27;0.68;;;21.70;59.50;;;;;;5059978;28;20072;-83
2021/08/17 10:40:57;;;;;;;0.85;0.52;;;21.80;59.20;;;;;;5068158;28;20451;-80
2021/08/17 10:43:25;;;;;;;1.13;0.60;;;21.90;57.70;;;;;;5073326;28;20020;-81
2021/08/17 10:46:16;;;;;;;1.20;0.63;;;21.90;57.60;;;;;;5076996;28;20434;-82
2021/08/17 10:48:54;;;;;;;1.23;0.60;;;21.90;57.80;;;;;;5062940;28;20040;-84
2021/08/17 10:51:20;;;;;;;1.20;0.60;;;22.00;58.20;;;;;;5071924;28;20038;-83
2021/08/17 10:53:52;;;;;;;1.33;0.70;;;22.10;57.40;;;;;;5068968;28;20025;-86
2021/08/17 10:56:26;;;;;;;1.50;0.60;;;22.00;56.80;;;;;;5066425;28;20502;-83
2021/08/17 10:58:59;;;;;;;1.48;0.70;;;22.00;58.10;;;;;;5078161;28;20028;-82
2021/08/17 11:01:32;;;;;;;0.93;0.50;;;22.00;58.60;;;;;;5076956;28;20398;-82
2021/08/17 11:04:02;;;;;;;1.52;0.77;;;22.00;58.30;;;;;;5076839;28;20107;-85
2021/08/17 11:06:47;;;;;;;1.50;0.60;;;22.00;57.20;;;;;;5069849;28;20522;-84
2021/08/17 11:09:30;;;;;;;1.35;0.70;;;22.10;57.60;;;;;;5058078;28;20403;-84
2021/08/17 11:12:05;;;;;;;0.88;0.50;;;22.30;57.60;;;;;;5058065;28;20124;-87
2021/08/17 11:14:33;;;;;;;1.33;0.68;;;22.70;55.10;;;;;;5054519;28;20017;-85
2021/08/17 11:17:04;;;;;;;1.58;0.50;;;22.90;54.10;;;;;;5077550;28;20044;-87
2021/08/17 11:19:33;;;;;;;0.98;0.60;;;23.30;54.40;;;;;;5076177;28;20025;-85
2021/08/17 11:22:07;;;;;;;1.00;0.40;;;23.40;54.50;;;;;;5076385;28;20039;-86
2021/08/17 11:24:36;;;;;;;1.00;0.57;;;23.30;52.70;;;;;;5058224;28;20017;-82
2021/08/17 11:27:08;;;;;;;1.42;0.50;;;23.00;53.20;;;;;;5056836;28;20029;-85
2021/08/17 11:29:48;;;;;;;1.48;0.73;;;22.80;54.50;;;;;;5061055;28;20020;-90
2021/08/17 11:32:35;;;;;;;1.30;0.63;;;22.50;55.70;;;;;;5070410;28;20492;-88
2021/08/17 11:35:06;;;;;;;1.30;0.70;;;22.20;56.20;;;;;;5057583;28;20028;-89
2021/08/17 11:37:33;;;;;;;1.30;0.60;;;22.00;56.70;;;;;;5062555;28;20105;-85
2021/08/17 11:40:01;;;;;;;1.70;0.70;;;22.00;56.50;;;;;;5066654;28;20021;-82
2021/08/17 11:42:29;;;;;;;1.30;0.80;;;22.20;56.50;;;;;;5067576;28;20025;-81
2021/08/17 11:45:11;;;;;;;1.05;0.60;;;22.30;55.90;;;;;;5061669;28;20074;-80
2021/08/17 11:47:39;;;;;;;1.17;0.70;;;22.30;54.40;;;;;;5067028;28;20037;-79
2021/08/17 11:50:08;;;;;;;0.93;0.60;;;22.50;55.20;;;;;;5071834;28;20025;-79
2021/08/17 11:52:42;;;;;;;1.52;0.68;;;22.30;54.90;;;;;;5075129;28;20021;-80
2021/08/17 11:55:13;;;;;;;1.80;0.90;;;22.50;55.20;;;;;;5074576;28;20013;-79
2021/08/17 11:57:44;;;;;;;1.10;0.40;;;22.60;54.70;;;;;;5068730;28;20081;-80
2021/08/17 12:00:13;;;;;;;0.98;0.57;;;22.80;53.90;;;;;;5075721;28;20024;-79
2021/08/17 12:02:41;;;;;;;1.98;0.82;;;23.10;53.10;;;;;;5074299;28;20020;-80
2021/08/17 12:05:18;;;;;;;1.10;0.60;;;23.20;52.60;;;;;;5061000;28;20083;-80
2021/08/17 12:07:46;;;;;;;1.42;0.40;;;23.30;51.10;;;;;;5068032;28;20123;-79
2021/08/17 12:10:15;;;;;;;1.33;0.60;;;23.40;52.00;;;;;;5072922;28;20145;-80
2021/08/17 12:13:12;;;;;;;2.05;0.80;;;23.30;52.80;;;;;;5075656;28;20029;-79
2021/08/17 12:15:43;;;;;;;1.42;0.50;;;23.30;52.60;;;;;;5074239;28;20032;-79
2021/08/17 12:18:16;;;;;;;1.00;0.50;;;23.50;52.10;;;;;;5065018;28;20051;-79
2021/08/17 12:20:56;;;;;;;1.13;0.52;;;23.60;51.30;;;;;;5068511;28;20025;-82
2021/08/17 12:23:25;;;;;;;1.80;0.40;;;23.80;52.00;;;;;;5059949;28;20441;-81
2021/08/17 12:26:08;;;;;;;1.13;0.60;;;23.40;51.90;;;;;;5069406;28;20023;-83
2021/08/17 12:28:35;;;;;;;0.88;0.47;;;23.30;52.00;;;;;;5066159;28;20073;-79
2021/08/17 12:31:07;;;;;;;1.25;0.68;;;22.90;52.10;;;;;;5075551;28;20506;-81
2021/08/17 12:33:33;;;;;;;1.77;0.60;;;22.60;52.60;;;;;;5068874;28;20532;-84
2021/08/17 12:35:59;;;;;;;2.03;0.70;;;22.40;53.30;;;;;;5073053;28;20029;-80
2021/08/17 12:38:24;;;;;;;1.40;0.82;;;22.30;53.80;;;;;;5074281;28;20020;-81
2021/08/17 12:40:52;;;;;;;1.50;0.93;;;22.30;54.30;;;;;;5068062;28;20019;-80
2021/08/17 12:43:19;;;;;;;1.23;0.73;;;22.20;54.30;;;;;;5070099;28;20028;-80
2021/08/17 12:45:45;;;;;;;2.05;0.80;;;22.10;55.40;;;;;;5075232;28;20052;-86
2021/08/17 12:48:16;;;;;;;1.40;0.68;;;22.10;54.90;;;;;;5066769;28;20036;-79
2021/08/17 12:50:43;;;;;;;2.10;0.90;;;22.00;55.30;;;;;;5066269;28;20040;-84
2021/08/17 12:53:22;;;;;;;1.10;0.65;;;22.00;55.60;;;;;;5071513;28;20108;-80